Time,TemperatureF,DewpointF,PressureIn,WindDirection,WindDirectionDegrees,WindSpeedMPH,WindSpeedGustMPH,Humidity,HourlyPrecipIn,Conditions,Clouds,dailyrainin,SoftwareType,DateUTC
2013-05-04 00:00:00,46.7,31.8,27.50,SSW,200,8.0,20.0,56,0.00,,,-99.99,Weather View 32 v60,2013-05-04 04:00:00,
2013-05-04 00:20:00,45.8,31.8,27.50,South,188,13.0,20.0,58,0.00,,,-99.99,Weather View 32 v60,2013-05-04 04:20:00,
2013-05-04 00:40:00,45.3,30.5,27.49,South,184,8.0,19.0,56,0.00,,,-99.99,Weather View 32 v60,2013-05-04 04:40:00,
2013-05-04 01:00:00,44.8,30.0,27.48,South,180,9.0,20.0,56,0.00,,,-99.99,Weather View 32 v60,2013-05-04 05:00:00,
2013-05-04 01:20:00,44.2,28.1,27.48,South,176,10.0,23.0,53,0.00,,,-99.99,Weather View 32 v60,2013-05-04 05:20:00,
2013-05-04 01:40:00,43.9,28.3,27.47,SSW,193,12.0,23.0,54,0.00,,,-99.99,Weather View 32 v60,2013-05-04 05:40:00,
2013-05-04 02:00:00,43.6,28.5,27.47,South,189,8.0,23.0,55,0.00,,,-99.99,Weather View 32 v60,2013-05-04 06:00:00,
2013-05-04 02:20:00,43.2,28.5,27.46,South,171,5.0,20.0,56,0.00,,,-99.99,Weather View 32 v60,2013-05-04 06:20:00,
2013-05-04 02:40:00,43.0,28.8,27.46,SSW,193,13.0,20.0,57,0.00,,,-99.99,Weather View 32 v60,2013-05-04 06:40:00,
2013-05-04 03:00:00,42.6,29.7,27.44,South,173,7.0,20.0,60,0.00,,,-99.99,Weather View 32 v60,2013-05-04 07:00:00,
2013-05-04 03:20:00,41.8,30.5,27.45,South,173,17.0,20.0,64,0.00,,,-99.99,Weather View 32 v60,2013-05-04 07:20:00,
2013-05-04 03:40:00,41.3,32.2,27.44,South,191,9.0,20.0,70,0.00,,,-99.99,Weather View 32 v60,2013-05-04 07:40:00,
2013-05-04 04:00:00,41.2,33.2,27.44,South,178,13.0,22.0,73,0.00,,,-99.99,Weather View 32 v60,2013-05-04 08:00:00,
2013-05-04 04:20:00,40.7,33.1,27.44,South,180,13.0,24.0,74,0.00,,,-99.99,Weather View 32 v60,2013-05-04 08:20:00,
2013-05-04 04:40:00,40.3,33.3,27.44,South,173,19.0,24.0,76,0.00,,,-99.99,Weather View 32 v60,2013-05-04 08:40:00,
2013-05-04 05:00:00,40.1,33.5,27.44,South,182,11.0,24.0,77,0.00,,,-99.99,Weather View 32 v60,2013-05-04 09:00:00,
2013-05-04 05:20:00,39.6,33.3,27.44,South,178,12.0,24.0,78,0.00,,,-99.99,Weather View 32 v60,2013-05-04 09:20:00,
2013-05-04 05:40:00,39.4,33.7,27.43,South,186,15.0,23.0,80,0.00,,,-99.99,Weather View 32 v60,2013-05-04 09:40:00,
2013-05-04 06:00:00,39.1,33.8,27.44,South,171,23.0,27.0,81,0.00,,,-99.99,Weather View 32 v60,2013-05-04 10:00:00,
2013-05-04 06:20:00,39.1,34.4,27.44,South,184,15.0,30.0,83,0.00,,,-99.99,Weather View 32 v60,2013-05-04 10:20:00,
2013-05-04 06:40:00,39.3,34.9,27.45,South,180,15.0,30.0,84,0.00,,,-99.99,Weather View 32 v60,2013-05-04 10:40:00,
2013-05-04 07:00:00,39.8,35.1,27.45,SSW,192,11.0,30.0,83,0.00,,,-99.99,Weather View 32 v60,2013-05-04 11:00:00,
2013-05-04 07:20:00,41.3,35.6,27.45,South,189,8.0,24.0,80,0.00,,,-99.99,Weather View 32 v60,2013-05-04 11:20:00,
2013-05-04 07:40:00,40.9,34.9,27.45,South,182,10.0,23.0,79,0.00,,,-99.99,Weather View 32 v60,2013-05-04 11:40:00,
2013-05-04 08:20:00,43.2,35.8,27.46,South,179,13.0,27.0,75,0.00,,,-99.99,Weather View 32 v60,2013-05-04 12:20:00,
2013-05-04 08:40:00,43.7,36.3,27.46,South,174,20.0,27.0,75,0.00,,,-99.99,Weather View 32 v60,2013-05-04 12:40:00,
2013-05-04 09:00:00,43.4,35.3,27.46,South,171,15.0,27.0,73,0.00,,,-99.99,Weather View 32 v60,2013-05-04 13:00:00,
2013-05-04 09:20:00,43.8,35.4,27.46,South,176,20.0,29.0,72,0.00,,,-99.99,Weather View 32 v60,2013-05-04 13:20:00,
2013-05-04 09:40:00,46.8,36.8,27.46,SSW,203,12.0,29.0,68,0.00,,,-99.99,Weather View 32 v60,2013-05-04 13:40:00,
2013-05-04 10:00:00,46.3,35.9,27.46,South,177,17.0,29.0,67,0.00,,,-99.99,Weather View 32 v60,2013-05-04 14:00:00,
2013-05-04 10:20:00,48.2,38.9,27.47,SSE,167,23.0,26.0,70,0.00,,,-99.99,Weather View 32 v60,2013-05-04 14:20:00,
2013-05-04 10:40:00,47.9,37.5,27.47,South,189,11.0,26.0,67,0.00,,,-99.99,Weather View 32 v60,2013-05-04 14:40:00,
2013-05-04 11:00:00,47.5,37.4,27.47,South,179,14.0,26.0,68,0.00,,,-99.99,Weather View 32 v60,2013-05-04 15:00:00,
2013-05-04 11:20:00,50.1,36.3,27.47,South,184,12.0,26.0,59,0.00,,,-99.99,Weather View 32 v60,2013-05-04 15:20:00,
2013-05-04 11:40:00,52.3,37.5,27.47,South,173,14.0,24.0,57,0.00,,,-99.99,Weather View 32 v60,2013-05-04 15:40:00,
2013-05-04 12:00:00,54.2,37.4,27.46,SSW,196,12.0,23.0,53,0.00,,,-99.99,Weather View 32 v60,2013-05-04 16:00:00,
2013-05-04 12:20:00,55.9,37.0,27.46,SSW,199,12.0,25.0,49,0.00,,,-99.99,Weather View 32 v60,2013-05-04 16:20:00,
2013-05-04 12:40:00,57.0,41.0,27.46,South,181,13.0,25.0,55,0.00,,,-99.99,Weather View 32 v60,2013-05-04 16:40:00,
2013-05-04 13:00:00,57.3,41.7,27.45,South,172,21.0,25.0,56,0.00,,,-99.99,Weather View 32 v60,2013-05-04 17:00:00,
2013-05-04 13:20:00,58.9,39.7,27.45,South,172,12.0,23.0,49,0.00,,,-99.99,Weather View 32 v60,2013-05-04 17:20:00,
2013-05-04 13:40:00,59.9,39.6,27.44,North,7,5.0,23.0,47,0.00,,,-99.99,Weather View 32 v60,2013-05-04 17:40:00,
2013-05-04 14:00:00,59.3,37.9,27.44,South,181,10.0,23.0,45,0.00,,,-99.99,Weather View 32 v60,2013-05-04 18:00:00,
2013-05-04 14:20:00,60.7,38.6,27.44,NW,320,2.0,22.0,44,0.00,,,-99.99,Weather View 32 v60,2013-05-04 18:20:00,
2013-05-04 14:40:00,61.0,38.9,27.43,WSW,254,3.0,22.0,44,0.00,,,-99.99,Weather View 32 v60,2013-05-04 18:40:00,
2013-05-04 15:00:00,62.1,39.3,27.43,South,185,9.0,23.0,43,0.00,,,-99.99,Weather View 32 v60,2013-05-04 19:00:00,
2013-05-04 15:20:00,61.3,38.0,27.42,South,179,6.0,23.0,42,0.00,,,-99.99,Weather View 32 v60,2013-05-04 19:20:00,
2013-05-04 15:40:00,63.1,38.3,27.41,WNW,293,3.0,23.0,40,0.00,,,-99.99,Weather View 32 v60,2013-05-04 19:40:00,
2013-05-04 16:00:00,60.7,39.2,27.41,South,181,12.0,23.0,45,0.00,,,-99.99,Weather View 32 v60,2013-05-04 20:00:00,
2013-05-04 16:20:00,61.4,40.9,27.40,SSW,194,11.0,24.0,47,0.00,,,-99.99,Weather View 32 v60,2013-05-04 20:20:00,
2013-05-04 16:40:00,62.1,40.5,27.40,NNW,328,6.0,24.0,45,0.00,,,-99.99,Weather View 32 v60,2013-05-04 20:40:00,
2013-05-04 17:00:00,62.1,39.9,27.40,SSW,193,6.0,26.0,44,0.00,,,-99.99,Weather View 32 v60,2013-05-04 21:00:00,
2013-05-04 17:20:00,60.7,39.8,27.40,SE,138,4.0,26.0,46,0.00,,,-99.99,Weather View 32 v60,2013-05-04 21:20:00,
2013-05-04 17:40:00,60.3,39.4,27.39,South,188,11.0,26.0,46,0.00,,,-99.99,Weather View 32 v60,2013-05-04 21:40:00,
2013-05-04 18:00:00,61.1,39.0,27.40,NW,317,4.0,26.0,44,0.00,,,-99.99,Weather View 32 v60,2013-05-04 22:00:00,
2013-05-04 18:20:00,59.8,38.4,27.40,SSE,163,2.0,21.0,45,0.00,,,-99.99,Weather View 32 v60,2013-05-04 22:20:00,
2013-05-04 18:40:00,57.6,38.0,27.40,SSW,195,5.0,19.0,48,0.00,,,-99.99,Weather View 32 v60,2013-05-04 22:40:00,
2013-05-04 18:41:00,57.6,38.0,27.40,SSW,195,5.0,19.0,48,0.00,,,-99.99,Weather View 32 v60,2013-05-04 22:41:00,
2013-05-04 19:00:00,56.5,37.5,27.40,South,182,8.0,21.0,49,0.00,,,-99.99,Weather View 32 v60,2013-05-04 23:00:00,
2013-05-04 19:20:00,55.7,37.3,27.40,South,171,10.0,21.0,50,0.00,,,-99.99,Weather View 32 v60,2013-05-04 23:20:00,
2013-05-04 19:40:00,54.8,37.5,27.40,SW,233,1.0,21.0,52,0.00,,,-99.99,Weather View 32 v60,2013-05-04 23:40:00,
2013-05-04 19:41:00,54.8,37.5,27.40,SW,233,1.0,21.0,52,0.00,,,-99.99,Weather View 32 v60,2013-05-04 23:41:00,
2013-05-04 20:00:00,54.1,37.3,27.40,SSW,199,6.0,20.0,53,0.00,,,-99.99,Weather View 32 v60,2013-05-05 00:00:00,
2013-05-04 20:20:00,53.5,37.7,27.41,South,179,8.0,18.0,55,0.00,,,-99.99,Weather View 32 v60,2013-05-05 00:20:00,
2013-05-04 20:40:00,52.9,37.6,27.41,South,177,8.0,18.0,56,0.00,,,-99.99,Weather View 32 v60,2013-05-05 00:40:00,
2013-05-04 20:42:00,52.9,37.6,27.41,South,177,8.0,18.0,56,0.00,,,-99.99,Weather View 32 v60,2013-05-05 00:42:00,
2013-05-04 21:00:00,52.5,38.1,27.42,South,181,8.0,18.0,58,0.00,,,-99.99,Weather View 32 v60,2013-05-05 01:00:00,
2013-05-04 21:20:00,52.2,38.7,27.42,South,178,10.0,19.0,60,0.00,,,-99.99,Weather View 32 v60,2013-05-05 01:20:00,
2013-05-04 21:40:00,51.7,38.7,27.43,SSE,164,8.0,19.0,61,0.00,,,-99.99,Weather View 32 v60,2013-05-05 01:40:00,
2013-05-04 21:43:00,51.7,38.7,27.43,SSE,164,8.0,19.0,61,0.00,,,-99.99,Weather View 32 v60,2013-05-05 01:43:00,
2013-05-04 22:00:00,51.1,38.5,27.43,South,182,9.0,19.0,62,0.00,,,-99.99,Weather View 32 v60,2013-05-05 02:00:00,
2013-05-04 22:20:00,50.8,38.2,27.43,South,174,15.0,18.0,62,0.00,,,-99.99,Weather View 32 v60,2013-05-05 02:20:00,
2013-05-04 22:40:00,50.5,37.9,27.42,SSE,168,12.0,19.0,62,0.00,,,-99.99,Weather View 32 v60,2013-05-05 02:40:00,
2013-05-04 22:43:00,50.5,37.9,27.42,SSE,168,12.0,19.0,62,0.00,,,-99.99,Weather View 32 v60,2013-05-05 02:43:00,
2013-05-04 23:00:00,50.0,37.9,27.43,South,169,10.0,19.0,63,0.00,,,-99.99,Weather View 32 v60,2013-05-05 03:00:00,
2013-05-04 23:20:00,49.7,37.6,27.42,South,173,9.0,19.0,63,0.00,,,-99.99,Weather View 32 v60,2013-05-05 03:20:00,
2013-05-04 23:40:00,49.5,37.4,27.42,South,177,10.0,19.0,63,0.00,,,-99.99,Weather View 32 v60,2013-05-05 03:40:00,